Terminal Aerodrome Forecast
Issued by NWS Twin Cities, MN

Home | Current Version | Previous Version | Graphics & Text | Print | Product List | Glossary On
Versions: 1 2 3 4 5 6 7 8 9 10 11 12 13 14 15 16 17 18 19 20 21 22 23 24 25 26 27 28 29
000
FTUS43 KMPX 191700
TAFMSP
TAF
KMSP 191738Z 1918/2024 30009KT P6SM SCT028 BKN035
     FM191900 31009KT P6SM VCSH BKN035
     FM200300 05004KT P6SM FEW200
     FM200800 VRB02KT 5SM BR FEW005
      TEMPO 2010/2013 2SM BR BKN005
     FM201400 14008KT P6SM SCT050=

USA.gov is the U.S. government's official web portal to all federal, state and local government web resources and services.